Terminal Aerodrome Forecast
Issued by NWS

Home | Current Version | Previous Version | Text Only | Print | Product List | Glossary On
Versions: 1 2 3 4 5 6 7 8 9 10 11 12 13 14 15 16 17 18
000
FTAK31 PANC 260536
TAFACD
TAF
PACD 260536Z 2606/2706 16018G35KT 5SM -RA BKN003 OVC008
      TEMPO 2606/2610 P6SM SCT005 OVC015
     FM261000 18011G22KT P6SM VCSH SCT005 BKN015
     FM270000 18018G25KT 2SM -RA BR BKN005 OVC015=

USA.gov is the U.S. government's official web portal to all federal, state and local government web resources and services.